sensor_id;sensor_type;location;lat;lon;timestamp;P1;durP1;ratioP1;P2;durP2;ratioP2
10383;SDS011;5238;43.508;4.980;2023-04-01T00:01:10;11.95;;;2.53;;
10383;SDS011;5238;43.508;4.980;2023-04-01T00:03:43;6.55;;;2.03;;
10383;SDS011;5238;43.508;4.980;2023-04-01T00:06:11;8.30;;;2.20;;
10383;SDS011;5238;43.508;4.980;2023-04-01T00:08:41;10.40;;;3.63;;
10383;SDS011;5238;43.508;4.980;2023-04-01T00:11:10;10.35;;;2.80;;
10383;SDS011;5238;43.508;4.980;2023-04-01T00:13:37;8.50;;;3.35;;
10383;SDS011;5238;43.508;4.980;2023-04-01T00:16:04;14.00;;;3.25;;
10383;SDS011;5238;43.508;4.980;2023-04-01T00:18:32;8.65;;;2.50;;
10383;SDS011;5238;43.508;4.980;2023-04-01T00:21:00;7.28;;;2.60;;
10383;SDS011;5238;43.508;4.980;2023-04-01T00:23:30;10.52;;;2.80;;
10383;SDS011;5238;43.508;4.980;2023-04-01T00:25:58;7.95;;;2.50;;
10383;SDS011;5238;43.508;4.980;2023-04-01T00:28:26;9.75;;;2.55;;
10383;SDS011;5238;43.508;4.980;2023-04-01T00:30:56;9.30;;;2.35;;
10383;SDS011;5238;43.508;4.980;2023-04-01T00:33:25;5.95;;;2.15;;
10383;SDS011;5238;43.508;4.980;2023-04-01T00:35:55;8.55;;;2.85;;
10383;SDS011;5238;43.508;4.980;2023-04-01T00:38:27;5.90;;;2.40;;
10383;SDS011;5238;43.508;4.980;2023-04-01T00:40:57;8.75;;;2.60;;
10383;SDS011;5238;43.508;4.980;2023-04-01T00:43:25;8.00;;;2.40;;
10383;SDS011;5238;43.508;4.980;2023-04-01T00:45:52;6.28;;;2.28;;
10383;SDS011;5238;43.508;4.980;2023-04-01T00:48:21;8.07;;;2.55;;
10383;SDS011;5238;43.508;4.980;2023-04-01T00:50:52;6.28;;;2.70;;
10383;SDS011;5238;43.508;4.980;2023-04-01T00:53:28;7.97;;;2.33;;
10383;SDS011;5238;43.508;4.980;2023-04-01T00:56:01;8.98;;;2.05;;
10383;SDS011;5238;43.508;4.980;2023-04-01T00:58:35;5.35;;;2.08;;
10383;SDS011;5238;43.508;4.980;2023-04-01T01:01:08;7.93;;;2.03;;
10383;SDS011;5238;43.508;4.980;2023-04-01T01:03:37;8.18;;;2.60;;
10383;SDS011;5238;43.508;4.980;2023-04-01T01:06:07;7.80;;;2.08;;
10383;SDS011;5238;43.508;4.980;2023-04-01T01:08:50;6.32;;;2.25;;
10383;SDS011;5238;43.508;4.980;2023-04-01T01:11:33;6.18;;;2.50;;
10383;SDS011;5238;43.508;4.980;2023-04-01T01:14:06;5.72;;;2.55;;
10383;SDS011;5238;43.508;4.980;2023-04-01T01:16:51;6.63;;;2.08;;
10383;SDS011;5238;43.508;4.980;2023-04-01T01:25:28;9.82;;;2.38;;
10383;SDS011;5238;43.508;4.980;2023-04-01T01:28:10;4.80;;;2.00;;
10383;SDS011;5238;43.508;4.980;2023-04-01T01:31:00;8.32;;;2.40;;
10383;SDS011;5238;43.508;4.980;2023-04-01T01:33:47;6.50;;;2.65;;
10383;SDS011;5238;43.508;4.980;2023-04-01T01:36:33;7.07;;;2.17;;
10383;SDS011;5238;43.508;4.980;2023-04-01T01:39:03;7.97;;;1.92;;
10383;SDS011;5238;43.508;4.980;2023-04-01T01:41:32;9.30;;;2.28;;
10383;SDS011;5238;43.508;4.980;2023-04-01T01:44:02;7.85;;;1.90;;
10383;SDS011;5238;43.508;4.980;2023-04-01T01:46:31;7.97;;;2.17;;
10383;SDS011;5238;43.508;4.980;2023-04-01T01:48:59;7.03;;;2.65;;
10383;SDS011;5238;43.508;4.980;2023-04-01T01:51:28;8.55;;;2.47;;
10383;SDS011;5238;43.508;4.980;2023-04-01T01:53:57;6.78;;;2.50;;
10383;SDS011;5238;43.508;4.980;2023-04-01T01:56:25;8.02;;;2.13;;
10383;SDS011;5238;43.508;4.980;2023-04-01T01:59:00;8.18;;;2.75;;
10383;SDS011;5238;43.508;4.980;2023-04-01T02:01:34;7.60;;;2.83;;
10383;SDS011;5238;43.508;4.980;2023-04-01T02:04:05;10.10;;;2.63;;
10383;SDS011;5238;43.508;4.980;2023-04-01T02:06:36;9.95;;;3.00;;
10383;SDS011;5238;43.508;4.980;2023-04-01T02:09:13;8.05;;;2.42;;
10383;SDS011;5238;43.508;4.980;2023-04-01T02:15:04;10.82;;;2.85;;
10383;SDS011;5238;43.508;4.980;2023-04-01T02:17:34;10.10;;;3.20;;
10383;SDS011;5238;43.508;4.980;2023-04-01T02:20:09;11.93;;;2.45;;
10383;SDS011;5238;43.508;4.980;2023-04-01T02:22:40;8.13;;;2.70;;
10383;SDS011;5238;43.508;4.980;2023-04-01T02:25:13;10.40;;;2.40;;
10383;SDS011;5238;43.508;4.980;2023-04-01T02:27:42;7.82;;;2.50;;
10383;SDS011;5238;43.508;4.980;2023-04-01T02:30:14;10.07;;;3.42;;
10383;SDS011;5238;43.508;4.980;2023-04-01T02:32:42;10.60;;;3.17;;
10383;SDS011;5238;43.508;4.980;2023-04-01T02:35:13;8.40;;;2.33;;
10383;SDS011;5238;43.508;4.980;2023-04-01T02:37:41;10.02;;;2.47;;
10383;SDS011;5238;43.508;4.980;2023-04-01T02:40:15;11.02;;;2.20;;
10383;SDS011;5238;43.508;4.980;2023-04-01T02:42:45;7.38;;;2.10;;
10383;SDS011;5238;43.508;4.980;2023-04-01T02:45:12;12.10;;;2.83;;
10383;SDS011;5238;43.508;4.980;2023-04-01T02:47:40;11.25;;;2.80;;
10383;SDS011;5238;43.508;4.980;2023-04-01T02:50:07;7.65;;;2.72;;
10383;SDS011;5238;43.508;4.980;2023-04-01T02:52:35;7.88;;;2.70;;
10383;SDS011;5238;43.508;4.980;2023-04-01T02:55:05;12.27;;;2.88;;
10383;SDS011;5238;43.508;4.980;2023-04-01T02:57:34;12.27;;;2.88;;
10383;SDS011;5238;43.508;4.980;2023-04-01T03:00:01;14.05;;;2.88;;
10383;SDS011;5238;43.508;4.980;2023-04-01T03:02:36;9.52;;;2.55;;
10383;SDS011;5238;43.508;4.980;2023-04-01T03:05:05;11.52;;;2.90;;
10383;SDS011;5238;43.508;4.980;2023-04-01T03:07:40;13.05;;;2.58;;
10383;SDS011;5238;43.508;4.980;2023-04-01T03:10:08;11.88;;;2.80;;
10383;SDS011;5238;43.508;4.980;2023-04-01T03:12:37;9.40;;;2.90;;
10383;SDS011;5238;43.508;4.980;2023-04-01T03:15:05;8.40;;;3.15;;
10383;SDS011;5238;43.508;4.980;2023-04-01T03:17:35;7.85;;;2.35;;
10383;SDS011;5238;43.508;4.980;2023-04-01T03:20:04;10.57;;;2.92;;
10383;SDS011;5238;43.508;4.980;2023-04-01T03:22:33;10.05;;;2.63;;
10383;SDS011;5238;43.508;4.980;2023-04-01T03:25:01;13.95;;;2.90;;
10383;SDS011;5238;43.508;4.980;2023-04-01T03:27:30;8.55;;;2.80;;
10383;SDS011;5238;43.508;4.980;2023-04-01T03:29:58;12.07;;;3.05;;
10383;SDS011;5238;43.508;4.980;2023-04-01T03:32:29;11.23;;;3.25;;
10383;SDS011;5238;43.508;4.980;2023-04-01T03:34:56;9.85;;;2.60;;
10383;SDS011;5238;43.508;4.980;2023-04-01T03:37:24;12.85;;;2.75;;
10383;SDS011;5238;43.508;4.980;2023-04-01T03:39:50;11.27;;;3.05;;
10383;SDS011;5238;43.508;4.980;2023-04-01T03:42:22;11.73;;;2.65;;
10383;SDS011;5238;43.508;4.980;2023-04-01T03:44:50;11.55;;;2.40;;
10383;SDS011;5238;43.508;4.980;2023-04-01T03:47:20;11.40;;;2.67;;
10383;SDS011;5238;43.508;4.980;2023-04-01T03:49:49;13.70;;;3.17;;
10383;SDS011;5238;43.508;4.980;2023-04-01T03:52:19;8.70;;;2.45;;
10383;SDS011;5238;43.508;4.980;2023-04-01T03:54:46;8.10;;;2.42;;
10383;SDS011;5238;43.508;4.980;2023-04-01T03:57:15;11.27;;;2.83;;
10383;SDS011;5238;43.508;4.980;2023-04-01T03:59:42;10.60;;;2.55;;
10383;SDS011;5238;43.508;4.980;2023-04-01T04:02:09;10.93;;;2.80;;
10383;SDS011;5238;43.508;4.980;2023-04-01T04:04:40;7.65;;;2.50;;
10383;SDS011;5238;43.508;4.980;2023-04-01T04:07:07;12.35;;;2.92;;
10383;SDS011;5238;43.508;4.980;2023-04-01T04:09:36;11.75;;;2.50;;
10383;SDS011;5238;43.508;4.980;2023-04-01T04:12:05;12.13;;;2.88;;
10383;SDS011;5238;43.508;4.980;2023-04-01T04:14:33;11.65;;;2.90;;
10383;SDS011;5238;43.508;4.980;2023-04-01T04:17:00;9.82;;;2.85;;
10383;SDS011;5238;43.508;4.980;2023-04-01T04:19:31;10.82;;;2.65;;
10383;SDS011;5238;43.508;4.980;2023-04-01T04:22:01;10.35;;;2.92;;
10383;SDS011;5238;43.508;4.980;2023-04-01T04:24:30;13.90;;;2.83;;
10383;SDS011;5238;43.508;4.980;2023-04-01T04:26:59;14.05;;;2.90;;
10383;SDS011;5238;43.508;4.980;2023-04-01T04:29:26;11.60;;;3.28;;
10383;SDS011;5238;43.508;4.980;2023-04-01T04:31:54;10.43;;;3.03;;
10383;SDS011;5238;43.508;4.980;2023-04-01T04:34:22;10.85;;;2.40;;
10383;SDS011;5238;43.508;4.980;2023-04-01T04:36:49;14.05;;;3.42;;
10383;SDS011;5238;43.508;4.980;2023-04-01T04:39:20;11.85;;;3.45;;
10383;SDS011;5238;43.508;4.980;2023-04-01T04:41:47;11.35;;;2.85;;
10383;SDS011;5238;43.508;4.980;2023-04-01T04:44:14;16.63;;;3.22;;
10383;SDS011;5238;43.508;4.980;2023-04-01T04:46:43;11.25;;;2.85;;
10383;SDS011;5238;43.508;4.980;2023-04-01T04:49:11;14.68;;;2.80;;
10383;SDS011;5238;43.508;4.980;2023-04-01T04:51:39;16.48;;;2.78;;
10383;SDS011;5238;43.508;4.980;2023-04-01T04:54:06;16.75;;;3.92;;
10383;SDS011;5238;43.508;4.980;2023-04-01T04:56:38;10.15;;;3.08;;
10383;SDS011;5238;43.508;4.980;2023-04-01T04:59:07;14.00;;;3.15;;
10383;SDS011;5238;43.508;4.980;2023-04-01T05:01:34;13.13;;;3.70;;
10383;SDS011;5238;43.508;4.980;2023-04-01T05:04:02;10.25;;;2.90;;
10383;SDS011;5238;43.508;4.980;2023-04-01T05:06:30;13.45;;;3.38;;
10383;SDS011;5238;43.508;4.980;2023-04-01T05:08:57;11.55;;;2.38;;
10383;SDS011;5238;43.508;4.980;2023-04-01T05:11:26;13.38;;;3.08;;
10383;SDS011;5238;43.508;4.980;2023-04-01T05:13:56;9.93;;;2.92;;
10383;SDS011;5238;43.508;4.980;2023-04-01T05:16:27;10.40;;;3.50;;
10383;SDS011;5238;43.508;4.980;2023-04-01T05:18:58;8.82;;;2.67;;
10383;SDS011;5238;43.508;4.980;2023-04-01T05:21:27;13.07;;;3.50;;
10383;SDS011;5238;43.508;4.980;2023-04-01T05:23:57;13.65;;;3.10;;
10383;SDS011;5238;43.508;4.980;2023-04-01T05:26:24;13.98;;;3.42;;
10383;SDS011;5238;43.508;4.980;2023-04-01T05:28:51;11.75;;;2.67;;
10383;SDS011;5238;43.508;4.980;2023-04-01T05:31:21;9.95;;;3.20;;
10383;SDS011;5238;43.508;4.980;2023-04-01T05:33:50;10.00;;;2.45;;
10383;SDS011;5238;43.508;4.980;2023-04-01T05:36:18;9.25;;;2.42;;
10383;SDS011;5238;43.508;4.980;2023-04-01T05:38:45;8.85;;;2.47;;
10383;SDS011;5238;43.508;4.980;2023-04-01T05:41:14;5.95;;;2.28;;
10383;SDS011;5238;43.508;4.980;2023-04-01T05:43:42;12.82;;;2.80;;
10383;SDS011;5238;43.508;4.980;2023-04-01T05:46:10;10.77;;;2.83;;
10383;SDS011;5238;43.508;4.980;2023-04-01T05:48:39;10.57;;;2.15;;
10383;SDS011;5238;43.508;4.980;2023-04-01T05:51:11;9.48;;;2.72;;
10383;SDS011;5238;43.508;4.980;2023-04-01T05:53:39;7.72;;;2.95;;
10383;SDS011;5238;43.508;4.980;2023-04-01T05:56:08;9.82;;;2.10;;
10383;SDS011;5238;43.508;4.980;2023-04-01T05:58:35;9.68;;;2.40;;
10383;SDS011;5238;43.508;4.980;2023-04-01T06:01:03;9.70;;;2.67;;
10383;SDS011;5238;43.508;4.980;2023-04-01T06:03:31;8.48;;;2.90;;
10383;SDS011;5238;43.508;4.980;2023-04-01T06:06:00;9.70;;;2.72;;
10383;SDS011;5238;43.508;4.980;2023-04-01T06:08:30;11.23;;;2.85;;
10383;SDS011;5238;43.508;4.980;2023-04-01T06:11:06;10.50;;;2.50;;
10383;SDS011;5238;43.508;4.980;2023-04-01T06:16:45;9.18;;;2.90;;
10383;SDS011;5238;43.508;4.980;2023-04-01T06:19:26;11.48;;;3.13;;
10383;SDS011;5238;43.508;4.980;2023-04-01T06:22:17;10.05;;;3.40;;
10383;SDS011;5238;43.508;4.980;2023-04-01T06:25:19;6.85;;;2.33;;
10383;SDS011;5238;43.508;4.980;2023-04-01T06:28:11;11.45;;;2.22;;
10383;SDS011;5238;43.508;4.980;2023-04-01T06:31:10;8.02;;;2.40;;
10383;SDS011;5238;43.508;4.980;2023-04-01T06:33:49;7.85;;;2.55;;
10383;SDS011;5238;43.508;4.980;2023-04-01T08:24:21;8.73;;;2.65;;
10383;SDS011;5238;43.508;4.980;2023-04-01T08:26:59;9.63;;;2.50;;
10383;SDS011;5238;43.508;4.980;2023-04-01T08:29:32;6.95;;;2.20;;
10383;SDS011;5238;43.508;4.980;2023-04-01T08:32:47;5.40;;;2.17;;
10383;SDS011;5238;43.508;4.980;2023-04-01T08:35:34;5.95;;;2.20;;
10383;SDS011;5238;43.508;4.980;2023-04-01T08:51:17;6.20;;;3.17;;
10383;SDS011;5238;43.508;4.980;2023-04-01T09:00:30;6.77;;;2.57;;
10383;SDS011;5238;43.508;4.980;2023-04-01T09:03:39;6.95;;;2.05;;
10383;SDS011;5238;43.508;4.980;2023-04-01T09:22:55;7.78;;;3.70;;
10383;SDS011;5238;43.508;4.980;2023-04-01T09:28:27;4.95;;;2.25;;
10383;SDS011;5238;43.508;4.980;2023-04-01T10:15:53;6.72;;;2.50;;
10383;SDS011;5238;43.508;4.980;2023-04-01T10:18:55;7.72;;;2.03;;
10383;SDS011;5238;43.508;4.980;2023-04-01T10:21:52;5.55;;;2.22;;
10383;SDS011;5238;43.508;4.980;2023-04-01T10:31:09;5.30;;;2.30;;
10383;SDS011;5238;43.508;4.980;2023-04-01T10:34:17;5.85;;;2.47;;
10383;SDS011;5238;43.508;4.980;2023-04-01T10:37:10;5.22;;;2.28;;
10383;SDS011;5238;43.508;4.980;2023-04-01T11:19:46;25.98;;;12.77;;
10383;SDS011;5238;43.508;4.980;2023-04-01T11:22:48;4.63;;;2.58;;
10383;SDS011;5238;43.508;4.980;2023-04-01T11:25:30;16.85;;;8.43;;
10383;SDS011;5238;43.508;4.980;2023-04-01T11:34:24;4.45;;;1.70;;
10383;SDS011;5238;43.508;4.980;2023-04-01T11:40:13;6.82;;;2.65;;
10383;SDS011;5238;43.508;4.980;2023-04-01T11:42:51;6.60;;;2.10;;
10383;SDS011;5238;43.508;4.980;2023-04-01T11:45:25;3.70;;;1.60;;
10383;SDS011;5238;43.508;4.980;2023-04-01T11:48:22;3.42;;;1.45;;
10383;SDS011;5238;43.508;4.980;2023-04-01T11:54:13;5.50;;;1.90;;
10383;SDS011;5238;43.508;4.980;2023-04-01T12:00:14;6.57;;;6.07;;
10383;SDS011;5238;43.508;4.980;2023-04-01T12:06:16;2.30;;;1.48;;
10383;SDS011;5238;43.508;4.980;2023-04-01T12:08:53;7.85;;;2.55;;
10383;SDS011;5238;43.508;4.980;2023-04-01T12:11:33;7.35;;;4.72;;
10383;SDS011;5238;43.508;4.980;2023-04-01T12:14:09;6.40;;;2.78;;
10383;SDS011;5238;43.508;4.980;2023-04-01T12:16:49;7.30;;;2.78;;
10383;SDS011;5238;43.508;4.980;2023-04-01T12:19:28;5.55;;;2.63;;
10383;SDS011;5238;43.508;4.980;2023-04-01T12:22:04;4.00;;;1.70;;
10383;SDS011;5238;43.508;4.980;2023-04-01T12:24:51;2.97;;;1.70;;
10383;SDS011;5238;43.508;4.980;2023-04-01T12:30:20;4.60;;;2.08;;
10383;SDS011;5238;43.508;4.980;2023-04-01T12:33:16;5.88;;;2.03;;
10383;SDS011;5238;43.508;4.980;2023-04-01T12:36:10;5.63;;;2.05;;
10383;SDS011;5238;43.508;4.980;2023-04-01T12:38:50;13.48;;;8.10;;
10383;SDS011;5238;43.508;4.980;2023-04-01T12:41:26;7.55;;;2.88;;
10383;SDS011;5238;43.508;4.980;2023-04-01T12:47:34;4.13;;;2.17;;
10383;SDS011;5238;43.508;4.980;2023-04-01T12:54:02;5.03;;;2.45;;
10383;SDS011;5238;43.508;4.980;2023-04-01T12:57:22;5.53;;;3.03;;
10383;SDS011;5238;43.508;4.980;2023-04-01T13:04:08;16.45;;;8.57;;
10383;SDS011;5238;43.508;4.980;2023-04-01T13:07:26;5.10;;;2.60;;
10383;SDS011;5238;43.508;4.980;2023-04-01T13:10:32;6.28;;;3.70;;
10383;SDS011;5238;43.508;4.980;2023-04-01T13:26:36;6.35;;;2.00;;
10383;SDS011;5238;43.508;4.980;2023-04-01T13:29:27;6.38;;;2.20;;
10383;SDS011;5238;43.508;4.980;2023-04-01T13:42:28;6.10;;;1.73;;
10383;SDS011;5238;43.508;4.980;2023-04-01T13:45:02;5.80;;;2.03;;
10383;SDS011;5238;43.508;4.980;2023-04-01T13:47:45;4.20;;;1.85;;
10383;SDS011;5238;43.508;4.980;2023-04-01T13:56:28;2.42;;;1.27;;
10383;SDS011;5238;43.508;4.980;2023-04-01T13:59:07;1.63;;;1.27;;
10383;SDS011;5238;43.508;4.980;2023-04-01T14:02:05;2.95;;;1.02;;
10383;SDS011;5238;43.508;4.980;2023-04-01T14:05:03;5.78;;;1.35;;
10383;SDS011;5238;43.508;4.980;2023-04-01T14:07:47;5.05;;;1.67;;
10383;SDS011;5238;43.508;4.980;2023-04-01T14:10:25;4.18;;;1.33;;
10383;SDS011;5238;43.508;4.980;2023-04-01T14:13:04;4.07;;;1.77;;
10383;SDS011;5238;43.508;4.980;2023-04-01T14:15:50;3.67;;;1.33;;
10383;SDS011;5238;43.508;4.980;2023-04-01T14:18:39;3.35;;;1.45;;
10383;SDS011;5238;43.508;4.980;2023-04-01T14:21:23;6.63;;;2.28;;
10383;SDS011;5238;43.508;4.980;2023-04-01T14:24:08;6.57;;;2.10;;
10383;SDS011;5238;43.508;4.980;2023-04-01T14:33:20;3.63;;;1.60;;
10383;SDS011;5238;43.508;4.980;2023-04-01T14:46:09;3.90;;;1.67;;
10383;SDS011;5238;43.508;4.980;2023-04-01T14:48:57;3.83;;;1.77;;
10383;SDS011;5238;43.508;4.980;2023-04-01T14:51:29;3.97;;;1.75;;
10383;SDS011;5238;43.508;4.980;2023-04-01T14:57:14;2.90;;;1.63;;
10383;SDS011;5238;43.508;4.980;2023-04-01T14:59:59;3.95;;;1.95;;
10383;SDS011;5238;43.508;4.980;2023-04-01T15:06:43;6.90;;;2.10;;
10383;SDS011;5238;43.508;4.980;2023-04-01T15:09:32;6.05;;;2.90;;
10383;SDS011;5238;43.508;4.980;2023-04-01T15:12:36;7.10;;;2.45;;
10383;SDS011;5238;43.508;4.980;2023-04-01T15:40:00;7.03;;;2.10;;
10383;SDS011;5238;43.508;4.980;2023-04-01T15:50:24;6.30;;;2.88;;
10383;SDS011;5238;43.508;4.980;2023-04-01T15:57:15;1.85;;;1.42;;
10383;SDS011;5238;43.508;4.980;2023-04-01T16:25:19;3.70;;;2.45;;
10383;SDS011;5238;43.508;4.980;2023-04-01T16:35:29;3.13;;;1.40;;
10383;SDS011;5238;43.508;4.980;2023-04-01T16:56:20;3.80;;;1.85;;
10383;SDS011;5238;43.508;4.980;2023-04-01T16:58:57;7.80;;;2.22;;
10383;SDS011;5238;43.508;4.980;2023-04-01T17:01:43;5.03;;;2.03;;
10383;SDS011;5238;43.508;4.980;2023-04-01T17:04:42;4.82;;;1.58;;
10383;SDS011;5238;43.508;4.980;2023-04-01T17:07:24;3.95;;;1.77;;
10383;SDS011;5238;43.508;4.980;2023-04-01T17:19:42;4.15;;;1.77;;
10383;SDS011;5238;43.508;4.980;2023-04-01T17:49:59;3.83;;;2.30;;
10383;SDS011;5238;43.508;4.980;2023-04-01T18:16:59;1.45;;;1.35;;
10383;SDS011;5238;43.508;4.980;2023-04-01T18:19:42;1.85;;;1.00;;
10383;SDS011;5238;43.508;4.980;2023-04-01T18:22:19;1.13;;;1.02;;
10383;SDS011;5238;43.508;4.980;2023-04-01T18:24:56;1.45;;;1.20;;
10383;SDS011;5238;43.508;4.980;2023-04-01T18:27:29;2.15;;;1.33;;
10383;SDS011;5238;43.508;4.980;2023-04-01T18:30:07;1.95;;;1.30;;
10383;SDS011;5238;43.508;4.980;2023-04-01T18:32:46;2.20;;;1.88;;
10383;SDS011;5238;43.508;4.980;2023-04-01T18:35:21;2.40;;;2.05;;
10383;SDS011;5238;43.508;4.980;2023-04-01T18:37:59;3.03;;;2.38;;
10383;SDS011;5238;43.508;4.980;2023-04-01T18:40:34;2.25;;;2.15;;
10383;SDS011;5238;43.508;4.980;2023-04-01T18:43:09;3.42;;;2.60;;
10383;SDS011;5238;43.508;4.980;2023-04-01T18:45:43;2.38;;;1.80;;
10383;SDS011;5238;43.508;4.980;2023-04-01T18:48:28;3.90;;;3.33;;
10383;SDS011;5238;43.508;4.980;2023-04-01T18:51:10;2.90;;;2.42;;
10383;SDS011;5238;43.508;4.980;2023-04-01T18:53:45;2.97;;;2.30;;
10383;SDS011;5238;43.508;4.980;2023-04-01T18:56:23;3.58;;;3.28;;
10383;SDS011;5238;43.508;4.980;2023-04-01T18:58:59;4.43;;;3.47;;
10383;SDS011;5238;43.508;4.980;2023-04-01T19:01:35;3.25;;;2.83;;
10383;SDS011;5238;43.508;4.980;2023-04-01T19:04:14;3.72;;;2.55;;
10383;SDS011;5238;43.508;4.980;2023-04-01T19:06:48;3.47;;;2.30;;
10383;SDS011;5238;43.508;4.980;2023-04-01T19:09:26;2.78;;;2.38;;
10383;SDS011;5238;43.508;4.980;2023-04-01T19:14:51;2.13;;;1.90;;
10383;SDS011;5238;43.508;4.980;2023-04-01T19:17:46;6.28;;;3.60;;
10383;SDS011;5238;43.508;4.980;2023-04-01T19:20:22;2.63;;;2.20;;
10383;SDS011;5238;43.508;4.980;2023-04-01T19:26:10;4.53;;;3.55;;
10383;SDS011;5238;43.508;4.980;2023-04-01T19:28:43;2.55;;;2.00;;
10383;SDS011;5238;43.508;4.980;2023-04-01T19:31:25;6.57;;;4.40;;
10383;SDS011;5238;43.508;4.980;2023-04-01T19:34:07;6.63;;;3.80;;
10383;SDS011;5238;43.508;4.980;2023-04-01T19:36:48;4.03;;;2.33;;
10383;SDS011;5238;43.508;4.980;2023-04-01T19:39:23;7.50;;;3.40;;
10383;SDS011;5238;43.508;4.980;2023-04-01T19:42:08;2.45;;;2.03;;
10383;SDS011;5238;43.508;4.980;2023-04-01T19:44:47;2.15;;;1.88;;
10383;SDS011;5238;43.508;4.980;2023-04-01T19:47:30;6.90;;;2.97;;
10383;SDS011;5238;43.508;4.980;2023-04-01T19:50:15;3.78;;;2.50;;
10383;SDS011;5238;43.508;4.980;2023-04-01T19:52:56;7.15;;;4.15;;
10383;SDS011;5238;43.508;4.980;2023-04-01T19:55:34;3.35;;;2.60;;
10383;SDS011;5238;43.508;4.980;2023-04-01T19:58:06;3.47;;;2.80;;
10383;SDS011;5238;43.508;4.980;2023-04-01T20:00:47;3.28;;;2.10;;
10383;SDS011;5238;43.508;4.980;2023-04-01T20:03:23;3.15;;;1.52;;
10383;SDS011;5238;43.508;4.980;2023-04-01T20:06:10;1.70;;;1.60;;
10383;SDS011;5238;43.508;4.980;2023-04-01T20:08:51;1.38;;;1.27;;
10383;SDS011;5238;43.508;4.980;2023-04-01T20:11:32;2.00;;;1.40;;
10383;SDS011;5238;43.508;4.980;2023-04-01T20:14:10;3.15;;;1.85;;
10383;SDS011;5238;43.508;4.980;2023-04-01T20:19:35;1.98;;;1.73;;
10383;SDS011;5238;43.508;4.980;2023-04-01T20:22:16;1.80;;;1.52;;
10383;SDS011;5238;43.508;4.980;2023-04-01T20:24:55;1.75;;;1.60;;
10383;SDS011;5238;43.508;4.980;2023-04-01T20:27:30;2.88;;;2.20;;
10383;SDS011;5238;43.508;4.980;2023-04-01T20:30:19;4.35;;;2.90;;
10383;SDS011;5238;43.508;4.980;2023-04-01T20:33:16;2.10;;;1.63;;
10383;SDS011;5238;43.508;4.980;2023-04-01T20:35:57;3.00;;;2.08;;
10383;SDS011;5238;43.508;4.980;2023-04-01T20:38:48;1.55;;;1.20;;
10383;SDS011;5238;43.508;4.980;2023-04-01T20:41:49;1.67;;;1.58;;
10383;SDS011;5238;43.508;4.980;2023-04-01T20:44:31;2.03;;;1.83;;
10383;SDS011;5238;43.508;4.980;2023-04-01T20:47:08;1.58;;;1.33;;
10383;SDS011;5238;43.508;4.980;2023-04-01T20:49:44;1.98;;;1.88;;
10383;SDS011;5238;43.508;4.980;2023-04-01T20:52:32;1.60;;;1.30;;
10383;SDS011;5238;43.508;4.980;2023-04-01T20:55:20;1.95;;;1.75;;
10383;SDS011;5238;43.508;4.980;2023-04-01T20:58:11;1.70;;;1.20;;
10383;SDS011;5238;43.508;4.980;2023-04-01T21:00:46;2.00;;;1.42;;
10383;SDS011;5238;43.508;4.980;2023-04-01T21:03:28;1.85;;;1.60;;
10383;SDS011;5238;43.508;4.980;2023-04-01T21:06:12;2.25;;;1.88;;
10383;SDS011;5238;43.508;4.980;2023-04-01T21:08:57;2.83;;;1.67;;
10383;SDS011;5238;43.508;4.980;2023-04-01T21:11:50;1.77;;;1.67;;
10383;SDS011;5238;43.508;4.980;2023-04-01T21:14:31;2.20;;;2.00;;
10383;SDS011;5238;43.508;4.980;2023-04-01T21:17:16;2.83;;;1.70;;
10383;SDS011;5238;43.508;4.980;2023-04-01T21:20:19;3.67;;;2.35;;
10383;SDS011;5238;43.508;4.980;2023-04-01T21:26:05;1.42;;;1.33;;
10383;SDS011;5238;43.508;4.980;2023-04-01T21:28:51;2.45;;;1.63;;
10383;SDS011;5238;43.508;4.980;2023-04-01T21:34:47;2.88;;;1.25;;
10383;SDS011;5238;43.508;4.980;2023-04-01T21:37:32;1.52;;;1.38;;
10383;SDS011;5238;43.508;4.980;2023-04-01T21:43:17;2.47;;;2.17;;
10383;SDS011;5238;43.508;4.980;2023-04-01T21:46:10;1.88;;;1.60;;
10383;SDS011;5238;43.508;4.980;2023-04-01T21:49:23;1.67;;;1.58;;
10383;SDS011;5238;43.508;4.980;2023-04-01T21:52:35;2.20;;;1.58;;
10383;SDS011;5238;43.508;4.980;2023-04-01T22:04:55;1.83;;;1.73;;
10383;SDS011;5238;43.508;4.980;2023-04-01T22:07:29;0.93;;;0.80;;
10383;SDS011;5238;43.508;4.980;2023-04-01T22:10:03;1.35;;;1.25;;
10383;SDS011;5238;43.508;4.980;2023-04-01T22:12:41;1.80;;;1.67;;
10383;SDS011;5238;43.508;4.980;2023-04-01T22:15:16;1.42;;;1.33;;
10383;SDS011;5238;43.508;4.980;2023-04-01T22:17:58;1.00;;;1.00;;
10383;SDS011;5238;43.508;4.980;2023-04-01T22:20:33;1.63;;;1.52;;
10383;SDS011;5238;43.508;4.980;2023-04-01T22:23:16;1.63;;;1.52;;
10383;SDS011;5238;43.508;4.980;2023-04-01T22:25:52;1.83;;;1.73;;
10383;SDS011;5238;43.508;4.980;2023-04-01T22:28:26;1.35;;;0.90;;
10383;SDS011;5238;43.508;4.980;2023-04-01T22:31:10;1.73;;;1.63;;
10383;SDS011;5238;43.508;4.980;2023-04-01T22:33:43;1.70;;;1.40;;
10383;SDS011;5238;43.508;4.980;2023-04-01T22:36:26;2.08;;;1.88;;
10383;SDS011;5238;43.508;4.980;2023-04-01T22:39:12;1.60;;;1.05;;
10383;SDS011;5238;43.508;4.980;2023-04-01T22:41:53;1.38;;;1.27;;
10383;SDS011;5238;43.508;4.980;2023-04-01T22:44:29;2.17;;;1.30;;
10383;SDS011;5238;43.508;4.980;2023-04-01T22:47:06;2.35;;;0.93;;
10383;SDS011;5238;43.508;4.980;2023-04-01T22:49:44;3.10;;;2.90;;
10383;SDS011;5238;43.508;4.980;2023-04-01T22:55:10;2.13;;;0.95;;
10383;SDS011;5238;43.508;4.980;2023-04-01T22:57:45;1.15;;;1.02;;
10383;SDS011;5238;43.508;4.980;2023-04-01T23:00:17;1.08;;;0.80;;
10383;SDS011;5238;43.508;4.980;2023-04-01T23:03:00;1.05;;;0.90;;
10383;SDS011;5238;43.508;4.980;2023-04-01T23:05:35;0.70;;;0.70;;
10383;SDS011;5238;43.508;4.980;2023-04-01T23:08:21;0.95;;;0.80;;
10383;SDS011;5238;43.508;4.980;2023-04-01T23:11:08;1.45;;;1.35;;
10383;SDS011;5238;43.508;4.980;2023-04-01T23:13:45;0.90;;;0.90;;
10383;SDS011;5238;43.508;4.980;2023-04-01T23:16:19;1.15;;;0.90;;
10383;SDS011;5238;43.508;4.980;2023-04-01T23:18:50;1.30;;;0.70;;
10383;SDS011;5238;43.508;4.980;2023-04-01T23:21:23;0.80;;;0.80;;
10383;SDS011;5238;43.508;4.980;2023-04-01T23:24:02;1.00;;;0.82;;
10383;SDS011;5238;43.508;4.980;2023-04-01T23:26:39;1.20;;;1.00;;
10383;SDS011;5238;43.508;4.980;2023-04-01T23:29:12;1.70;;;0.70;;
10383;SDS011;5238;43.508;4.980;2023-04-01T23:31:41;0.80;;;0.80;;
10383;SDS011;5238;43.508;4.980;2023-04-01T23:36:55;1.05;;;0.80;;
10383;SDS011;5238;43.508;4.980;2023-04-01T23:39:36;1.45;;;1.00;;
10383;SDS011;5238;43.508;4.980;2023-04-01T23:42:12;1.20;;;1.10;;
10383;SDS011;5238;43.508;4.980;2023-04-01T23:44:41;1.00;;;0.90;;
10383;SDS011;5238;43.508;4.980;2023-04-01T23:47:12;0.93;;;0.80;;
10383;SDS011;5238;43.508;4.980;2023-04-01T23:49:45;0.75;;;0.75;;
10383;SDS011;5238;43.508;4.980;2023-04-01T23:52:17;0.73;;;0.70;;
10383;SDS011;5238;43.508;4.980;2023-04-01T23:54:51;1.55;;;1.45;;
10383;SDS011;5238;43.508;4.980;2023-04-01T23:57:22;1.25;;;1.13;;
